sensor_id;sensor_type;location;lat;lon;timestamp;temperature;humidity
15274;DHT22;7738;49.532;11.156;2023-05-07T00:01:19;11.90;99.90
15274;DHT22;7738;49.532;11.156;2023-05-07T00:03:49;12.00;99.90
15274;DHT22;7738;49.532;11.156;2023-05-07T00:06:19;11.90;99.90
15274;DHT22;7738;49.532;11.156;2023-05-07T00:08:52;12.00;99.90
15274;DHT22;7738;49.532;11.156;2023-05-07T00:11:22;12.00;99.90
15274;DHT22;7738;49.532;11.156;2023-05-07T00:18:53;12.00;99.90
15274;DHT22;7738;49.532;11.156;2023-05-07T00:23:58;12.00;99.90
15274;DHT22;7738;49.532;11.156;2023-05-07T00:39:02;12.10;99.90
15274;DHT22;7738;49.532;11.156;2023-05-07T00:44:04;11.90;99.90
15274;DHT22;7738;49.532;11.156;2023-05-07T00:49:05;10.20;99.90
15274;DHT22;7738;49.532;11.156;2023-05-07T00:51:35;12.10;99.90
15274;DHT22;7738;49.532;11.156;2023-05-07T00:54:08;12.10;99.90
15274;DHT22;7738;49.532;11.156;2023-05-07T01:01:39;12.00;99.90
15274;DHT22;7738;49.532;11.156;2023-05-07T01:04:09;12.10;99.90
15274;DHT22;7738;49.532;11.156;2023-05-07T01:06:40;11.90;99.90
15274;DHT22;7738;49.532;11.156;2023-05-07T01:09:14;12.00;99.90
15274;DHT22;7738;49.532;11.156;2023-05-07T01:14:15;12.00;99.90
15274;DHT22;7738;49.532;11.156;2023-05-07T01:16:46;12.10;99.90
15274;DHT22;7738;49.532;11.156;2023-05-07T01:19:20;11.90;99.90
15274;DHT22;7738;49.532;11.156;2023-05-07T01:21:51;11.80;99.90
15274;DHT22;7738;49.532;11.156;2023-05-07T01:24:26;11.80;99.90
15274;DHT22;7738;49.532;11.156;2023-05-07T01:29:31;11.90;99.90
15274;DHT22;7738;49.532;11.156;2023-05-07T01:32:02;11.90;99.90
15274;DHT22;7738;49.532;11.156;2023-05-07T01:34:34;11.80;99.90
15274;DHT22;7738;49.532;11.156;2023-05-07T01:39:40;12.00;99.90
15274;DHT22;7738;49.532;11.156;2023-05-07T01:42:10;11.60;99.90
15274;DHT22;7738;49.532;11.156;2023-05-07T01:44:40;12.00;99.90
15274;DHT22;7738;49.532;11.156;2023-05-07T01:47:11;11.70;99.90
15274;DHT22;7738;49.532;11.156;2023-05-07T01:49:42;11.80;99.90
15274;DHT22;7738;49.532;11.156;2023-05-07T01:54:46;12.00;99.90
15274;DHT22;7738;49.532;11.156;2023-05-07T01:57:16;11.80;99.90
15274;DHT22;7738;49.532;11.156;2023-05-07T04:06:15;10.60;99.90
15274;DHT22;7738;49.532;11.156;2023-05-07T04:23:56;10.50;99.90
15274;DHT22;7738;49.532;11.156;2023-05-07T08:02:08;16.70;99.90
15274;DHT22;7738;49.532;11.156;2023-05-07T08:04:38;17.00;99.90
15274;DHT22;7738;49.532;11.156;2023-05-07T08:14:50;16.80;99.90
15274;DHT22;7738;49.532;11.156;2023-05-07T08:29:56;17.00;99.90
15274;DHT22;7738;49.532;11.156;2023-05-07T08:39:58;17.10;99.90
15274;DHT22;7738;49.532;11.156;2023-05-07T08:47:46;17.10;99.90
15274;DHT22;7738;49.532;11.156;2023-05-07T08:52:51;17.50;99.90
15274;DHT22;7738;49.532;11.156;2023-05-07T08:55:22;17.40;99.90
15274;DHT22;7738;49.532;11.156;2023-05-07T08:57:52;18.10;99.90
15274;DHT22;7738;49.532;11.156;2023-05-07T09:02:57;18.90;99.90
15274;DHT22;7738;49.532;11.156;2023-05-07T09:05:28;19.10;99.90
15274;DHT22;7738;49.532;11.156;2023-05-07T09:07:59;19.20;98.50
15274;DHT22;7738;49.532;11.156;2023-05-07T09:10:29;19.10;99.50
15274;DHT22;7738;49.532;11.156;2023-05-07T09:13:00;19.50;99.90
15274;DHT22;7738;49.532;11.156;2023-05-07T09:20:36;20.20;99.90
15274;DHT22;7738;49.532;11.156;2023-05-07T09:23:08;20.10;99.90
15274;DHT22;7738;49.532;11.156;2023-05-07T09:25:38;20.60;99.10
15274;DHT22;7738;49.532;11.156;2023-05-07T09:28:15;20.30;97.20
15274;DHT22;7738;49.532;11.156;2023-05-07T09:30:47;19.40;94.80
15274;DHT22;7738;49.532;11.156;2023-05-07T09:35:52;20.60;97.00
15274;DHT22;7738;49.532;11.156;2023-05-07T09:38:22;20.60;96.90
15274;DHT22;7738;49.532;11.156;2023-05-07T09:41:03;21.20;93.20
15274;DHT22;7738;49.532;11.156;2023-05-07T09:43:42;21.20;92.60
15274;DHT22;7738;49.532;11.156;2023-05-07T09:46:18;20.50;91.70
15274;DHT22;7738;49.532;11.156;2023-05-07T09:48:53;21.10;91.30
15274;DHT22;7738;49.532;11.156;2023-05-07T09:51:29;21.40;90.80
15274;DHT22;7738;49.532;11.156;2023-05-07T09:56:34;21.70;89.80
15274;DHT22;7738;49.532;11.156;2023-05-07T09:59:06;20.90;87.60
15274;DHT22;7738;49.532;11.156;2023-05-07T10:01:41;20.90;90.00
15274;DHT22;7738;49.532;11.156;2023-05-07T10:04:12;21.00;89.50
15274;DHT22;7738;49.532;11.156;2023-05-07T10:09:15;21.10;90.00
15274;DHT22;7738;49.532;11.156;2023-05-07T10:11:46;21.60;90.40
15274;DHT22;7738;49.532;11.156;2023-05-07T10:14:21;21.10;90.30
15274;DHT22;7738;49.532;11.156;2023-05-07T10:16:54;21.10;88.80
15274;DHT22;7738;49.532;11.156;2023-05-07T10:19:26;21.70;90.80
15274;DHT22;7738;49.532;11.156;2023-05-07T10:22:01;21.70;90.20
15274;DHT22;7738;49.532;11.156;2023-05-07T10:24:37;21.60;90.20
15274;DHT22;7738;49.532;11.156;2023-05-07T10:27:14;21.60;89.70
15274;DHT22;7738;49.532;11.156;2023-05-07T10:29:58;21.70;90.50
15274;DHT22;7738;49.532;11.156;2023-05-07T10:32:42;22.30;89.30
15274;DHT22;7738;49.532;11.156;2023-05-07T10:35:26;22.50;86.40
15274;DHT22;7738;49.532;11.156;2023-05-07T10:38:03;23.20;84.30
15274;DHT22;7738;49.532;11.156;2023-05-07T10:40:36;23.40;85.20
15274;DHT22;7738;49.532;11.156;2023-05-07T10:43:07;23.20;81.60
15274;DHT22;7738;49.532;11.156;2023-05-07T10:46:09;22.60;79.90
15274;DHT22;7738;49.532;11.156;2023-05-07T10:49:10;22.20;81.80
15274;DHT22;7738;49.532;11.156;2023-05-07T10:52:21;21.90;83.00
15274;DHT22;7738;49.532;11.156;2023-05-07T10:55:19;21.90;83.80
15274;DHT22;7738;49.532;11.156;2023-05-07T10:58:24;22.20;86.00
15274;DHT22;7738;49.532;11.156;2023-05-07T11:01:52;23.50;80.10
15274;DHT22;7738;49.532;11.156;2023-05-07T11:04:36;24.00;79.20
15274;DHT22;7738;49.532;11.156;2023-05-07T11:07:28;24.50;70.80
15274;DHT22;7738;49.532;11.156;2023-05-07T11:10:07;25.00;66.40
15274;DHT22;7738;49.532;11.156;2023-05-07T11:12:53;25.00;66.80
15274;DHT22;7738;49.532;11.156;2023-05-07T11:15:43;25.10;67.60
15274;DHT22;7738;49.532;11.156;2023-05-07T11:18:46;25.60;63.50
15274;DHT22;7738;49.532;11.156;2023-05-07T11:21:38;25.60;61.10
15274;DHT22;7738;49.532;11.156;2023-05-07T11:24:24;25.50;61.10
15274;DHT22;7738;49.532;11.156;2023-05-07T11:32:07;25.40;57.70
15274;DHT22;7738;49.532;11.156;2023-05-07T11:34:47;25.20;56.50
15274;DHT22;7738;49.532;11.156;2023-05-07T11:37:25;25.40;57.70
15274;DHT22;7738;49.532;11.156;2023-05-07T11:40:04;26.10;57.90
15274;DHT22;7738;49.532;11.156;2023-05-07T11:42:37;26.00;57.10
15274;DHT22;7738;49.532;11.156;2023-05-07T11:45:09;25.30;55.80
15274;DHT22;7738;49.532;11.156;2023-05-07T11:47:41;24.60;57.00
15274;DHT22;7738;49.532;11.156;2023-05-07T11:50:11;24.10;60.30
15274;DHT22;7738;49.532;11.156;2023-05-07T11:52:51;23.50;59.30
15274;DHT22;7738;49.532;11.156;2023-05-07T11:55:21;23.10;61.50
15274;DHT22;7738;49.532;11.156;2023-05-07T12:23:04;22.10;66.20
15274;DHT22;7738;49.532;11.156;2023-05-07T12:25:34;22.00;67.30
15274;DHT22;7738;49.532;11.156;2023-05-07T12:28:05;22.30;84.60
15274;DHT22;7738;49.532;11.156;2023-05-07T12:35:39;23.40;81.20
15274;DHT22;7738;49.532;11.156;2023-05-07T12:38:14;24.30;74.40
15274;DHT22;7738;49.532;11.156;2023-05-07T12:40:46;24.90;74.70
15274;DHT22;7738;49.532;11.156;2023-05-07T12:55:58;23.30;59.40
15274;DHT22;7738;49.532;11.156;2023-05-07T13:01:03;23.00;62.50
15274;DHT22;7738;49.532;11.156;2023-05-07T13:06:06;23.10;64.30
15274;DHT22;7738;49.532;11.156;2023-05-07T18:16:33;17.50;76.80
15274;DHT22;7738;49.532;11.156;2023-05-07T18:51:46;16.60;99.90
15274;DHT22;7738;49.532;11.156;2023-05-07T18:59:19;16.30;91.80
15274;DHT22;7738;49.532;11.156;2023-05-07T19:19:25;16.30;87.10
15274;DHT22;7738;49.532;11.156;2023-05-07T19:29:30;15.70;86.10
15274;DHT22;7738;49.532;11.156;2023-05-07T19:32:00;15.70;99.90
15274;DHT22;7738;49.532;11.156;2023-05-07T19:34:30;15.40;95.60
15274;DHT22;7738;49.532;11.156;2023-05-07T19:54:36;15.20;99.90
15274;DHT22;7738;49.532;11.156;2023-05-07T20:12:15;14.90;91.70
15274;DHT22;7738;49.532;11.156;2023-05-07T20:14:45;15.20;99.90
15274;DHT22;7738;49.532;11.156;2023-05-07T20:17:15;15.20;98.90
15274;DHT22;7738;49.532;11.156;2023-05-07T20:24:46;14.70;94.20
15274;DHT22;7738;49.532;11.156;2023-05-07T20:27:19;14.40;93.80
15274;DHT22;7738;49.532;11.156;2023-05-07T20:29:51;14.60;99.50
15274;DHT22;7738;49.532;11.156;2023-05-07T20:32:21;14.00;99.90
15274;DHT22;7738;49.532;11.156;2023-05-07T20:34:52;14.80;95.90
15274;DHT22;7738;49.532;11.156;2023-05-07T20:37:22;15.00;98.40
15274;DHT22;7738;49.532;11.156;2023-05-07T20:39:52;13.90;99.90
15274;DHT22;7738;49.532;11.156;2023-05-07T20:42:25;14.30;94.90
15274;DHT22;7738;49.532;11.156;2023-05-07T20:44:55;14.10;95.60
15274;DHT22;7738;49.532;11.156;2023-05-07T20:47:30;13.70;99.80
15274;DHT22;7738;49.532;11.156;2023-05-07T20:50:00;14.00;96.50
15274;DHT22;7738;49.532;11.156;2023-05-07T20:55:01;13.80;99.90
15274;DHT22;7738;49.532;11.156;2023-05-07T20:57:33;13.60;99.90
15274;DHT22;7738;49.532;11.156;2023-05-07T21:00:04;14.20;99.90
15274;DHT22;7738;49.532;11.156;2023-05-07T21:05:06;13.70;99.90
15274;DHT22;7738;49.532;11.156;2023-05-07T21:10:08;13.20;97.80
15274;DHT22;7738;49.532;11.156;2023-05-07T21:12:41;13.90;99.90
15274;DHT22;7738;49.532;11.156;2023-05-07T21:15:11;13.20;99.40
15274;DHT22;7738;49.532;11.156;2023-05-07T21:20:11;13.30;99.90
15274;DHT22;7738;49.532;11.156;2023-05-07T21:22:42;13.20;99.90
15274;DHT22;7738;49.532;11.156;2023-05-07T21:25:12;13.50;99.90
15274;DHT22;7738;49.532;11.156;2023-05-07T21:27:45;13.30;99.90
15274;DHT22;7738;49.532;11.156;2023-05-07T21:35:16;13.10;99.90
15274;DHT22;7738;49.532;11.156;2023-05-07T21:37:46;13.20;99.90
15274;DHT22;7738;49.532;11.156;2023-05-07T21:40:16;12.90;99.90
15274;DHT22;7738;49.532;11.156;2023-05-07T21:42:49;13.00;99.90
15274;DHT22;7738;49.532;11.156;2023-05-07T21:45:19;13.00;99.90
15274;DHT22;7738;49.532;11.156;2023-05-07T21:47:49;12.90;99.90
15274;DHT22;7738;49.532;11.156;2023-05-07T21:50:20;13.00;99.90
15274;DHT22;7738;49.532;11.156;2023-05-07T21:52:50;12.70;99.90
15274;DHT22;7738;49.532;11.156;2023-05-07T21:55:20;12.80;99.90
15274;DHT22;7738;49.532;11.156;2023-05-07T21:57:53;12.70;99.90
15274;DHT22;7738;49.532;11.156;2023-05-07T22:03:02;12.40;99.90
15274;DHT22;7738;49.532;11.156;2023-05-07T22:05:32;13.20;99.90
15274;DHT22;7738;49.532;11.156;2023-05-07T22:08:03;12.30;99.90
15274;DHT22;7738;49.532;11.156;2023-05-07T22:13:06;12.60;99.90
15274;DHT22;7738;49.532;11.156;2023-05-07T22:28:26;12.60;99.90
15274;DHT22;7738;49.532;11.156;2023-05-07T22:30:57;12.40;99.90
15274;DHT22;7738;49.532;11.156;2023-05-07T22:35:57;12.60;99.90
15274;DHT22;7738;49.532;11.156;2023-05-07T22:38:27;12.10;99.90
15274;DHT22;7738;49.532;11.156;2023-05-07T22:40:58;12.40;99.90
15274;DHT22;7738;49.532;11.156;2023-05-07T22:43:30;12.40;99.90
15274;DHT22;7738;49.532;11.156;2023-05-07T22:46:01;12.10;99.90
15274;DHT22;7738;49.532;11.156;2023-05-07T22:53:32;12.10;99.90
15274;DHT22;7738;49.532;11.156;2023-05-07T23:03:41;12.00;99.90
15274;DHT22;7738;49.532;11.156;2023-05-07T23:06:11;11.70;99.90
15274;DHT22;7738;49.532;11.156;2023-05-07T23:08:41;12.30;99.90
15274;DHT22;7738;49.532;11.156;2023-05-07T23:13:44;11.90;99.90
15274;DHT22;7738;49.532;11.156;2023-05-07T23:16:14;12.00;99.90
15274;DHT22;7738;49.532;11.156;2023-05-07T23:18:44;11.90;99.90
15274;DHT22;7738;49.532;11.156;2023-05-07T23:21:15;11.70;99.90
15274;DHT22;7738;49.532;11.156;2023-05-07T23:23:45;11.80;99.90
15274;DHT22;7738;49.532;11.156;2023-05-07T23:26:16;11.50;99.90
15274;DHT22;7738;49.532;11.156;2023-05-07T23:28:48;11.50;99.90
15274;DHT22;7738;49.532;11.156;2023-05-07T23:33:49;11.50;99.90
15274;DHT22;7738;49.532;11.156;2023-05-07T23:36:19;11.10;99.90
15274;DHT22;7738;49.532;11.156;2023-05-07T23:38:49;11.50;99.90
15274;DHT22;7738;49.532;11.156;2023-05-07T23:46:22;11.20;99.90
15274;DHT22;7738;49.532;11.156;2023-05-07T23:48:53;11.60;99.90
15274;DHT22;7738;49.532;11.156;2023-05-07T23:58:56;11.00;99.90
